createdAt,value
2022-10-05T00:02:19.505Z,98461.66
2022-10-05T00:06:22.762Z,98462.16
2022-10-05T00:10:26.167Z,98463.38
2022-10-05T00:14:31.307Z,98469.50
2022-10-05T00:18:36.391Z,98470.59
2022-10-05T00:22:39.751Z,98470.84
2022-10-05T00:26:43.955Z,98472.16
2022-10-05T00:30:47.823Z,98469.09
2022-10-05T00:34:52.888Z,98459.94
2022-10-05T00:38:56.474Z,98467.97
2022-10-05T00:43:11.548Z,98459.50
2022-10-05T00:47:33.729Z,98453.84
2022-10-05T00:51:40.570Z,98456.69
2022-10-05T00:55:56.266Z,98457.78
2022-10-05T01:00:09.903Z,98469.00
2022-10-05T01:04:21.300Z,98458.63
2022-10-05T01:13:04.688Z,98448.09
2022-10-05T01:17:13.502Z,98440.44
2022-10-05T01:21:21.410Z,98420.88
2022-10-05T01:25:31.833Z,98422.78
2022-10-05T01:29:45.638Z,98411.81
2022-10-05T01:33:57.204Z,98403.34
2022-10-05T01:38:13.264Z,98390.22
2022-10-05T01:42:26.885Z,98397.38
2022-10-05T01:46:37.727Z,98388.25
2022-10-05T01:50:55.356Z,98377.75
2022-10-05T01:55:11.333Z,98372.69
2022-10-05T01:59:26.383Z,98372.94
2022-10-05T02:03:38.453Z,98361.28
2022-10-05T02:07:47.359Z,98357.41
2022-10-05T02:11:58.050Z,98354.41
2022-10-05T02:16:05.169Z,98356.53
2022-10-05T02:20:16.650Z,98356.81
2022-10-05T02:24:25.953Z,98335.19
2022-10-05T02:28:34.873Z,98339.97
2022-10-05T02:32:42.364Z,98328.78
2022-10-05T02:36:49.305Z,98331.50
2022-10-05T02:40:59.758Z,98334.09
2022-10-05T02:45:12.822Z,98336.69
2022-10-05T02:49:24.813Z,98334.91
2022-10-05T02:53:43.193Z,98339.59
2022-10-05T02:57:53.183Z,98343.13
2022-10-05T03:02:01.835Z,98349.28
2022-10-05T03:06:12.343Z,98339.84
2022-10-05T03:10:27.891Z,98327.56
2022-10-05T03:14:41.075Z,98338.50
2022-10-05T03:18:59.429Z,98346.16
2022-10-05T03:23:05.740Z,98334.97
2022-10-05T03:27:19.719Z,98336.34
2022-10-05T03:31:32.323Z,98335.13
2022-10-05T03:35:47.401Z,98340.78
2022-10-05T03:39:56.160Z,98345.47
2022-10-05T03:44:35.628Z,98354.50
2022-10-05T03:48:45.503Z,98349.31
2022-10-05T03:52:52.757Z,98357.50
2022-10-05T03:56:58.749Z,98361.06
2022-10-05T04:01:10.168Z,98356.38
2022-10-05T04:05:18.310Z,98360.38
2022-10-05T04:09:27.171Z,98356.13
2022-10-05T04:13:36.834Z,98358.59
2022-10-05T04:17:44.977Z,98361.91
2022-10-05T04:21:52.401Z,98369.53
2022-10-05T04:26:02.567Z,98353.94
2022-10-05T04:30:09.272Z,98347.97
2022-10-05T04:34:27.067Z,98357.50
2022-10-05T04:38:45.292Z,98360.25
2022-10-05T04:43:01.331Z,98355.44
2022-10-05T04:47:27.055Z,98355.69
2022-10-05T04:51:39.448Z,98357.59
2022-10-05T04:55:52.541Z,98360.47
2022-10-05T05:00:11.518Z,98357.41
2022-10-05T05:04:37.907Z,98357.28
2022-10-05T05:09:03.691Z,98359.34
2022-10-05T05:13:20.054Z,98352.22
2022-10-05T05:17:34.950Z,98361.22
2022-10-05T05:21:48.637Z,98361.72
2022-10-05T05:26:03.996Z,98366.50
2022-10-05T05:30:18.529Z,98369.59
2022-10-05T05:34:39.861Z,98391.31
2022-10-05T05:38:48.957Z,98407.84
2022-10-05T05:43:00.108Z,98406.44
2022-10-05T05:47:06.434Z,98403.09
2022-10-05T05:51:14.585Z,98382.78
2022-10-05T05:55:29.684Z,98382.25
2022-10-05T05:59:50.719Z,98379.84
2022-10-05T06:03:57.316Z,98399.69
2022-10-05T06:08:05.294Z,98416.03
2022-10-05T06:12:13.147Z,98413.13
2022-10-05T06:16:22.895Z,98412.78
2022-10-05T06:20:30.371Z,98407.81
2022-10-05T06:24:40.710Z,98394.28
2022-10-05T06:28:43.738Z,98410.75
2022-10-05T06:33:06.761Z,98399.28
2022-10-05T06:37:13.708Z,98425.31
2022-10-05T06:41:26.678Z,98431.75
2022-10-05T06:45:32.394Z,98431.72
2022-10-05T06:49:47.315Z,98436.00
2022-10-05T06:54:01.549Z,98427.00
2022-10-05T06:58:19.109Z,98435.16
2022-10-05T07:02:31.784Z,98429.94
2022-10-05T07:06:42.473Z,98435.16
2022-10-05T07:11:02.129Z,98433.22
2022-10-05T07:15:27.355Z,98433.59
2022-10-05T07:19:39.373Z,98430.38
2022-10-05T07:24:06.375Z,98433.34
2022-10-05T07:28:14.796Z,98432.97
2022-10-05T07:32:32.335Z,98436.09
2022-10-05T07:36:57.760Z,98432.22
2022-10-05T07:41:08.012Z,98414.25
2022-10-05T07:45:22.999Z,98413.22
2022-10-05T07:49:38.010Z,98426.44
2022-10-05T07:53:47.727Z,98408.25
2022-10-05T07:58:02.435Z,98401.88
2022-10-05T08:02:15.610Z,98398.16
2022-10-05T08:06:33.340Z,98403.34
2022-10-05T08:10:44.083Z,98408.28
2022-10-05T08:14:54.712Z,98407.22
2022-10-05T08:19:04.543Z,98406.41
2022-10-05T08:23:19.149Z,98396.16
2022-10-05T08:27:28.396Z,98404.16
2022-10-05T08:31:36.640Z,98395.38
2022-10-05T08:35:44.417Z,98399.31
2022-10-05T08:39:54.487Z,98399.63
2022-10-05T08:44:34.483Z,98396.84
2022-10-05T08:49:11.027Z,98396.09
2022-10-05T08:53:30.245Z,98391.63
2022-10-05T08:57:48.197Z,98385.56
2022-10-05T09:02:14.722Z,98379.34
2022-10-05T09:06:49.069Z,98393.34
2022-10-05T09:11:02.584Z,98386.91
2022-10-05T09:15:28.789Z,98388.50
2022-10-05T09:20:07.800Z,98391.66
2022-10-05T09:24:39.428Z,98397.13
2022-10-05T09:29:00.045Z,98385.81
2022-10-05T09:33:29.081Z,98385.50
2022-10-05T09:38:18.414Z,98385.78
2022-10-05T09:42:54.043Z,98377.25
2022-10-05T09:47:19.015Z,98378.28
2022-10-05T09:51:52.223Z,98370.34
2022-10-05T09:56:16.901Z,98369.91
2022-10-05T10:05:15.961Z,98362.97
2022-10-05T10:09:35.318Z,98365.19
2022-10-05T10:14:07.143Z,98356.81
2022-10-05T10:18:34.778Z,98361.59
2022-10-05T10:23:08.095Z,98361.41
2022-10-05T10:27:22.231Z,98354.03
2022-10-05T10:31:43.329Z,98353.34
2022-10-05T10:35:56.485Z,98354.25
2022-10-05T10:40:24.053Z,98357.91
2022-10-05T10:45:02.591Z,98360.72
2022-10-05T10:49:25.163Z,98351.66
2022-10-05T10:53:53.300Z,98355.28
2022-10-05T10:58:20.018Z,98361.38
2022-10-05T11:02:59.733Z,98356.75
2022-10-05T11:07:23.275Z,98358.00
2022-10-05T11:12:03.960Z,98352.84
2022-10-05T11:16:44.708Z,98353.94
2022-10-05T11:21:38.184Z,98343.25
2022-10-05T11:26:20.662Z,98325.59
2022-10-05T11:30:57.533Z,98326.19
2022-10-05T11:35:27.730Z,98324.09
2022-10-05T11:39:38.970Z,98320.44
2022-10-05T11:44:07.238Z,98314.78
2022-10-05T11:48:47.567Z,98317.59
2022-10-05T11:52:55.959Z,98312.94
2022-10-05T11:57:04.220Z,98309.50
2022-10-05T12:01:18.504Z,98303.53
2022-10-05T12:05:26.747Z,98310.63
2022-10-05T12:10:06.670Z,98303.31
2022-10-05T12:14:19.037Z,98301.69
2022-10-05T12:18:28.197Z,98298.09
2022-10-05T12:22:39.046Z,98303.53
2022-10-05T12:26:48.130Z,98289.50
2022-10-05T12:31:09.439Z,98293.13
2022-10-05T12:35:36.576Z,98290.22
2022-10-05T12:39:52.747Z,98282.03
2022-10-05T12:44:04.131Z,98279.03
2022-10-05T12:48:25.666Z,98282.03
2022-10-05T12:52:44.085Z,98276.22
2022-10-05T12:56:55.627Z,98262.44
2022-10-05T13:01:10.934Z,98264.97
2022-10-05T13:05:27.858Z,98262.63
2022-10-05T13:18:22.525Z,98250.59
2022-10-05T13:22:35.930Z,98260.44
